createdAt,value
2019-04-27T00:00:48.631Z,0.00
2019-04-27T00:01:48.593Z,0.00
2019-04-27T00:02:47.616Z,0.00
2019-04-27T00:03:47.601Z,0.00
2019-04-27T00:04:48.713Z,0.00
2019-04-27T00:05:47.578Z,0.00
2019-04-27T00:06:47.566Z,0.00
2019-04-27T00:07:51.174Z,0.00
2019-04-27T00:08:47.544Z,0.00
2019-04-27T00:09:51.295Z,0.00
2019-04-27T00:10:47.530Z,0.00
2019-04-27T00:11:47.506Z,0.00
2019-04-27T00:12:47.494Z,0.00
2019-04-27T00:13:47.484Z,0.00
2019-04-27T00:14:48.270Z,0.00
2019-04-27T00:15:47.478Z,0.00
2019-04-27T00:16:50.883Z,0.00
2019-04-27T00:17:49.545Z,0.00
2019-04-27T00:18:49.821Z,0.00
2019-04-27T00:19:48.420Z,0.00
2019-04-27T00:20:47.431Z,0.00
2019-04-27T00:21:47.422Z,0.00
2019-04-27T00:22:47.421Z,0.00
2019-04-27T00:23:47.380Z,0.00
2019-04-27T00:24:47.371Z,0.00
2019-04-27T00:25:47.372Z,0.00
2019-04-27T00:26:47.360Z,0.00
2019-04-27T00:27:47.332Z,0.00
2019-04-27T00:28:47.323Z,0.00
2019-04-27T00:29:47.322Z,0.00
2019-04-27T00:30:47.296Z,0.00
2019-04-27T00:31:47.307Z,0.00
2019-04-27T00:32:47.279Z,0.00
2019-04-27T00:33:47.277Z,0.00
2019-04-27T00:34:47.259Z,0.00
2019-04-27T00:35:47.267Z,0.00
2019-04-27T00:36:47.244Z,0.00
2019-04-27T00:37:47.230Z,0.00
2019-04-27T00:38:47.215Z,0.00
2019-04-27T00:39:47.197Z,0.00
2019-04-27T00:40:47.233Z,0.00
2019-04-27T00:41:47.183Z,0.00
2019-04-27T00:42:47.179Z,0.00
2019-04-27T00:43:47.161Z,0.00
2019-04-27T00:44:47.159Z,0.00
2019-04-27T00:45:47.135Z,0.00
2019-04-27T00:46:47.147Z,0.00
2019-04-27T00:47:56.309Z,0.00
2019-04-27T00:48:48.107Z,0.00
2019-04-27T00:49:47.108Z,0.00
2019-04-27T00:50:47.087Z,0.00
2019-04-27T00:51:47.088Z,0.00
2019-04-27T00:52:47.060Z,0.00
2019-04-27T00:53:47.059Z,0.00
2019-04-27T00:54:47.041Z,0.00
2019-04-27T00:55:47.046Z,0.00
2019-04-27T00:56:47.031Z,0.00
2019-04-27T00:57:47.010Z,0.00
2019-04-27T00:58:46.999Z,0.00
2019-04-27T00:59:46.982Z,0.00
2019-04-27T01:00:46.980Z,0.00
2019-04-27T01:01:46.976Z,0.00
2019-04-27T01:02:46.980Z,0.00
2019-04-27T01:03:46.954Z,0.00
2019-04-27T01:04:46.926Z,0.00
2019-04-27T01:05:46.920Z,0.00
2019-04-27T01:06:46.919Z,0.00
2019-04-27T01:07:46.901Z,0.00
2019-04-27T01:08:46.900Z,0.00
2019-04-27T01:09:46.886Z,0.00
2019-04-27T01:10:46.866Z,0.00
2019-04-27T01:11:46.857Z,0.00
2019-04-27T01:12:46.853Z,0.00
2019-04-27T01:13:46.858Z,0.00
2019-04-27T01:14:46.836Z,0.00
2019-04-27T01:15:46.813Z,0.00
2019-04-27T01:16:46.816Z,0.00
2019-04-27T01:17:46.808Z,0.00
2019-04-27T01:18:46.801Z,0.00
2019-04-27T01:19:46.799Z,0.00
2019-04-27T01:20:46.764Z,0.00
2019-04-27T01:21:46.756Z,0.00
2019-04-27T01:22:46.732Z,0.00
2019-04-27T01:23:48.725Z,0.00
2019-04-27T01:24:46.734Z,0.00
2019-04-27T01:25:46.707Z,0.00
2019-04-27T01:26:46.697Z,0.00
2019-04-27T01:27:46.699Z,0.00
2019-04-27T01:28:46.669Z,0.00
2019-04-27T01:29:46.670Z,0.00
2019-04-27T01:30:46.651Z,0.00
2019-04-27T01:31:46.632Z,0.00
2019-04-27T01:32:46.633Z,0.00
2019-04-27T01:33:46.679Z,0.00
2019-04-27T01:34:46.614Z,0.00
2019-04-27T01:35:46.615Z,0.00
2019-04-27T01:36:46.617Z,0.00
2019-04-27T01:37:46.577Z,0.00
2019-04-27T01:38:46.565Z,0.00
2019-04-27T01:39:46.585Z,0.00
2019-04-27T01:40:46.578Z,0.00
2019-04-27T01:41:46.529Z,0.00
2019-04-27T01:42:46.522Z,0.00
2019-04-27T01:43:46.499Z,0.00
2019-04-27T01:44:46.520Z,0.00
2019-04-27T01:45:46.505Z,0.00
2019-04-27T01:46:46.508Z,0.00
2019-04-27T01:47:46.503Z,0.00
2019-04-27T01:48:46.452Z,0.00
2019-04-27T01:49:46.480Z,0.00
2019-04-27T01:50:46.430Z,0.00
2019-04-27T01:51:46.430Z,0.00
2019-04-27T01:52:46.421Z,0.00
2019-04-27T01:53:46.401Z,0.00
2019-04-27T01:54:46.444Z,0.00
2019-04-27T01:55:46.417Z,0.00
2019-04-27T01:56:46.365Z,0.00
2019-04-27T01:57:46.401Z,0.00
2019-04-27T01:58:46.364Z,0.00
2019-04-27T01:59:46.329Z,0.00
2019-04-27T02:00:46.345Z,0.00
2019-04-27T02:01:46.337Z,0.00
2019-04-27T02:02:46.303Z,0.00
2019-04-27T02:03:46.304Z,0.00
2019-04-27T02:04:46.308Z,0.00
2019-04-27T02:05:46.276Z,0.00
2019-04-27T02:06:46.249Z,0.00
2019-04-27T02:07:46.253Z,0.00
2019-04-27T02:08:46.237Z,0.00
2019-04-27T02:09:46.241Z,0.00
2019-04-27T02:10:46.244Z,0.00
2019-04-27T02:11:46.217Z,0.00
2019-04-27T02:12:46.184Z,0.00
2019-04-27T02:13:46.171Z,0.00
2019-04-27T02:14:46.185Z,0.00
2019-04-27T02:15:46.168Z,0.00
2019-04-27T02:16:46.166Z,0.00
2019-04-27T02:17:46.168Z,0.00
2019-04-27T02:18:46.135Z,0.00
2019-04-27T02:19:46.112Z,0.00
2019-04-27T02:20:46.125Z,0.00
2019-04-27T02:21:46.091Z,0.00
2019-04-27T02:22:46.100Z,0.00
2019-04-27T02:23:46.087Z,0.00
2019-04-27T02:24:46.080Z,0.00
2019-04-27T02:25:46.072Z,0.00
2019-04-27T02:26:46.059Z,0.00
2019-04-27T02:27:46.028Z,0.00
2019-04-27T02:28:46.038Z,0.00
2019-04-27T02:29:46.015Z,0.00
2019-04-27T02:30:46.005Z,0.00
2019-04-27T02:31:46.063Z,0.00
2019-04-27T02:32:45.990Z,0.00
2019-04-27T02:33:45.968Z,0.00
2019-04-27T02:34:45.962Z,0.00
2019-04-27T02:35:45.937Z,0.00
2019-04-27T02:36:45.949Z,0.00
2019-04-27T02:37:45.958Z,0.00
2019-04-27T02:38:45.944Z,0.00
2019-04-27T02:39:45.900Z,0.00
2019-04-27T02:40:45.910Z,0.00
2019-04-27T02:41:45.870Z,0.00
2019-04-27T02:42:45.885Z,0.00
2019-04-27T02:43:45.876Z,0.00
2019-04-27T02:44:45.840Z,0.00
2019-04-27T02:45:45.838Z,0.00
2019-04-27T02:46:45.818Z,0.00
2019-04-27T02:47:45.841Z,0.00
2019-04-27T02:48:58.572Z,0.00
2019-04-27T02:49:46.790Z,0.00
2019-04-27T02:50:45.793Z,0.00
2019-04-27T02:51:45.785Z,0.00
2019-04-27T02:52:45.789Z,0.00
2019-04-27T02:53:45.781Z,0.00
2019-04-27T02:54:45.742Z,0.00
2019-04-27T02:55:45.727Z,0.00
2019-04-27T02:56:45.723Z,0.00
2019-04-27T02:57:45.734Z,0.00
2019-04-27T02:58:45.735Z,0.00
2019-04-27T02:59:45.679Z,0.00
2019-04-27T03:00:45.678Z,0.00
2019-04-27T03:01:46.755Z,0.00
2019-04-27T03:02:45.662Z,0.00
2019-04-27T03:03:45.642Z,0.00
2019-04-27T03:04:45.652Z,0.00
2019-04-27T03:05:45.626Z,0.00
2019-04-27T03:06:45.644Z,0.00
2019-04-27T03:07:45.630Z,0.00
2019-04-27T03:08:49.455Z,0.00
2019-04-27T03:09:46.581Z,0.00
2019-04-27T03:10:45.569Z,0.00
2019-04-27T03:11:45.569Z,0.00
2019-04-27T03:12:45.562Z,0.00
2019-04-27T03:13:45.588Z,0.00
2019-04-27T03:14:45.532Z,0.00
2019-04-27T03:15:45.518Z,0.00
2019-04-27T03:16:45.502Z,0.00
2019-04-27T03:17:45.497Z,0.00
2019-04-27T03:18:45.509Z,0.00
2019-04-27T03:19:45.481Z,0.00
2019-04-27T03:20:45.467Z,0.00
2019-04-27T03:21:45.449Z,0.00
2019-04-27T03:22:45.434Z,0.00
2019-04-27T03:23:45.436Z,0.00
2019-04-27T03:24:45.445Z,0.00
2019-04-27T03:25:45.397Z,0.00
2019-04-27T03:26:45.410Z,0.00
2019-04-27T03:27:45.383Z,0.00
2019-04-27T03:28:45.375Z,0.00
2019-04-27T03:29:45.380Z,0.00
2019-04-27T03:30:45.345Z,0.00
2019-04-27T03:31:47.146Z,0.00
2019-04-27T03:32:46.338Z,0.00
2019-04-27T03:33:45.319Z,0.00
2019-04-27T03:34:45.299Z,0.00
2019-04-27T03:35:45.310Z,0.00
2019-04-27T03:36:45.277Z,0.00
2019-04-27T03:37:45.268Z,0.00
2019-04-27T03:38:45.260Z,0.00
2019-04-27T03:39:45.267Z,0.00
2019-04-27T03:40:45.270Z,0.00
2019-04-27T03:41:45.262Z,0.00
2019-04-27T03:42:45.220Z,0.00
2019-04-27T03:43:45.219Z,0.00
2019-04-27T03:44:45.211Z,0.00
2019-04-27T03:45:45.200Z,0.00
2019-04-27T03:46:45.177Z,0.00
2019-04-27T03:47:45.428Z,0.00
2019-04-27T03:48:45.138Z,0.00
2019-04-27T03:49:45.132Z,0.00
2019-04-27T03:50:45.148Z,0.00
2019-04-27T03:51:45.116Z,0.00
2019-04-27T03:52:45.103Z,0.00
2019-04-27T03:53:45.098Z,0.00
2019-04-27T03:54:45.080Z,0.00
2019-04-27T03:55:45.094Z,5.62
2019-04-27T03:56:45.069Z,5.62
2019-04-27T03:57:45.067Z,5.62
2019-04-27T03:58:45.034Z,5.62
2019-04-27T03:59:45.020Z,5.62
2019-04-27T04:00:45.012Z,5.62
2019-04-27T04:01:45.021Z,11.25
2019-04-27T04:02:44.998Z,11.25
2019-04-27T04:03:44.996Z,11.25
2019-04-27T04:04:44.964Z,11.25
2019-04-27T04:05:44.958Z,16.88
2019-04-27T04:06:44.985Z,16.88
2019-04-27T04:07:44.932Z,16.88
2019-04-27T04:08:44.927Z,22.50
2019-04-27T04:09:44.970Z,22.50
2019-04-27T04:10:44.905Z,22.50
2019-04-27T04:11:44.919Z,28.12
2019-04-27T04:12:44.881Z,28.12
2019-04-27T04:13:44.875Z,28.12
2019-04-27T04:14:44.877Z,33.75
2019-04-27T04:15:44.867Z,33.75
2019-04-27T04:16:44.842Z,39.38
2019-04-27T04:17:44.849Z,39.38
2019-04-27T04:18:44.815Z,45.00
2019-04-27T04:19:54.357Z,50.62
2019-04-27T04:20:45.787Z,50.62
2019-04-27T04:21:44.813Z,56.25
2019-04-27T04:22:44.787Z,61.88
2019-04-27T04:23:44.755Z,61.88
2019-04-27T04:24:44.759Z,67.50
2019-04-27T04:25:44.739Z,67.50
2019-04-27T04:26:44.722Z,73.12
2019-04-27T04:27:44.727Z,73.12
2019-04-27T04:28:44.702Z,78.75
2019-04-27T04:29:44.692Z,84.38
2019-04-27T04:30:44.689Z,90.00
2019-04-27T04:31:44.701Z,90.00
2019-04-27T04:32:44.708Z,95.62
2019-04-27T04:33:44.651Z,95.62
2019-04-27T04:34:44.638Z,101.25
2019-04-27T04:35:44.620Z,106.88
2019-04-27T04:36:44.626Z,106.88
2019-04-27T04:37:44.624Z,112.50
2019-04-27T04:38:44.606Z,112.50
2019-04-27T04:39:44.585Z,118.12
2019-04-27T04:40:44.575Z,123.75
2019-04-27T04:41:44.568Z,123.75
2019-04-27T04:42:44.553Z,129.38
2019-04-27T04:43:44.563Z,129.38
2019-04-27T04:44:44.528Z,135.00
2019-04-27T04:45:44.512Z,135.00
2019-04-27T04:46:44.522Z,140.62
2019-04-27T04:47:44.503Z,140.62
2019-04-27T04:48:44.506Z,146.25
2019-04-27T04:49:44.470Z,151.88
2019-04-27T04:50:44.462Z,151.88
2019-04-27T04:51:44.448Z,157.50
2019-04-27T04:52:44.443Z,163.12
2019-04-27T04:53:44.467Z,163.12
2019-04-27T04:54:44.430Z,168.75
2019-04-27T04:55:44.406Z,174.38
2019-04-27T04:56:44.393Z,180.00
2019-04-27T04:57:44.380Z,185.62
2019-04-27T04:58:44.414Z,191.25
2019-04-27T04:59:45.111Z,191.25
2019-04-27T05:00:55.515Z,196.88
2019-04-27T05:01:44.484Z,208.12
2019-04-27T05:02:44.440Z,208.12
2019-04-27T05:03:44.334Z,213.75
2019-04-27T05:04:44.345Z,219.38
2019-04-27T05:05:44.309Z,225.00
2019-04-27T05:06:45.019Z,230.62
2019-04-27T05:07:44.365Z,241.88
2019-04-27T05:08:44.284Z,247.50
2019-04-27T05:09:44.286Z,253.12
2019-04-27T05:10:44.270Z,264.38
2019-04-27T05:11:44.233Z,270.00
2019-04-27T05:12:44.216Z,281.25
2019-04-27T05:13:44.255Z,286.88
2019-04-27T05:14:44.207Z,298.12
2019-04-27T05:15:44.212Z,303.75
2019-04-27T05:16:44.197Z,315.00
2019-04-27T05:17:44.163Z,320.62
2019-04-27T05:18:44.157Z,326.25
2019-04-27T05:19:44.158Z,337.50
2019-04-27T05:20:44.159Z,343.12
2019-04-27T05:21:44.134Z,348.75
2019-04-27T05:22:44.110Z,360.00
2019-04-27T05:23:44.107Z,365.62
2019-04-27T05:24:44.120Z,371.25
2019-04-27T05:25:44.098Z,382.50
2019-04-27T05:26:44.067Z,388.12
2019-04-27T05:27:44.058Z,399.38
2019-04-27T05:28:44.071Z,405.00
2019-04-27T05:29:44.044Z,410.62
2019-04-27T05:30:44.054Z,416.25
2019-04-27T05:31:44.018Z,427.50
2019-04-27T05:32:44.034Z,427.50
2019-04-27T05:33:44.036Z,433.12
2019-04-27T05:34:43.978Z,433.12
2019-04-27T05:35:43.974Z,438.75
2019-04-27T05:36:48.970Z,438.75
2019-04-27T05:37:44.991Z,438.75
2019-04-27T05:38:45.909Z,438.75
2019-04-27T05:39:43.967Z,438.75
2019-04-27T05:40:43.922Z,438.75
2019-04-27T05:41:43.916Z,438.75
2019-04-27T05:42:43.888Z,438.75
2019-04-27T05:43:43.887Z,433.12
2019-04-27T05:44:45.587Z,433.12
2019-04-27T05:45:43.866Z,427.50
2019-04-27T05:46:43.868Z,427.50
2019-04-27T05:47:48.382Z,427.50
2019-04-27T05:48:44.834Z,427.50
2019-04-27T05:49:44.629Z,427.50
2019-04-27T05:50:45.993Z,421.88
2019-04-27T05:51:43.812Z,416.25
2019-04-27T05:52:43.788Z,410.62
2019-04-27T05:53:43.778Z,410.62
2019-04-27T05:54:43.762Z,405.00
2019-04-27T05:55:43.755Z,410.62
2019-04-27T05:56:43.760Z,405.00
2019-04-27T05:57:43.731Z,405.00
2019-04-27T05:58:43.728Z,405.00
2019-04-27T05:59:43.724Z,405.00
2019-04-27T06:00:43.695Z,405.00
2019-04-27T06:01:43.701Z,405.00
2019-04-27T06:02:43.683Z,405.00
2019-04-27T06:03:43.673Z,405.00
2019-04-27T06:04:43.647Z,410.62
2019-04-27T06:05:43.653Z,427.50
2019-04-27T06:06:43.644Z,444.38
2019-04-27T06:07:43.686Z,455.62
2019-04-27T06:08:43.631Z,461.25
2019-04-27T06:09:43.599Z,483.75
2019-04-27T06:10:43.579Z,517.50
2019-04-27T06:11:43.572Z,556.88
2019-04-27T06:12:43.580Z,618.75
2019-04-27T06:13:43.575Z,686.25
2019-04-27T06:14:43.546Z,776.25
2019-04-27T06:15:43.534Z,855.00
2019-04-27T06:16:43.528Z,922.50
2019-04-27T06:17:43.517Z,990.00
2019-04-27T06:18:43.499Z,1029.38
2019-04-27T06:19:43.950Z,1063.12
2019-04-27T06:20:53.505Z,1102.50
2019-04-27T06:21:44.464Z,1130.62
2019-04-27T06:22:43.453Z,1164.38
2019-04-27T06:23:43.489Z,1192.50
2019-04-27T06:24:43.432Z,1209.38
2019-04-27T06:25:43.470Z,1215.00
2019-04-27T06:26:43.412Z,1226.25
2019-04-27T06:27:43.430Z,1220.62
2019-04-27T06:28:43.406Z,1215.00
2019-04-27T06:29:43.382Z,1186.88
2019-04-27T06:30:43.453Z,1130.62
2019-04-27T06:31:43.405Z,1080.00
2019-04-27T06:32:43.360Z,1074.38
2019-04-27T06:33:43.375Z,1051.88
2019-04-27T06:34:43.315Z,1063.12
2019-04-27T06:35:43.308Z,1085.62
2019-04-27T06:36:43.300Z,1108.12
2019-04-27T06:37:43.300Z,1113.75
2019-04-27T06:38:43.308Z,1102.50
2019-04-27T06:39:43.266Z,1096.88
2019-04-27T06:40:43.280Z,1096.88
2019-04-27T06:41:43.246Z,1108.12
2019-04-27T06:42:43.235Z,1147.50
2019-04-27T06:43:43.246Z,1198.12
2019-04-27T06:44:43.224Z,1226.25
2019-04-27T06:45:43.218Z,1254.38
2019-04-27T06:46:43.198Z,1282.50
2019-04-27T06:47:43.184Z,1271.25
2019-04-27T06:48:43.166Z,1248.75
2019-04-27T06:49:43.228Z,1203.75
2019-04-27T06:50:43.156Z,1119.38
2019-04-27T06:51:43.133Z,1051.88
2019-04-27T06:52:43.144Z,990.00
2019-04-27T06:53:43.126Z,916.88
2019-04-27T06:54:43.109Z,843.75
2019-04-27T06:55:43.112Z,804.38
2019-04-27T06:56:43.133Z,793.12
2019-04-27T06:57:43.079Z,793.12
2019-04-27T06:58:43.065Z,798.75
2019-04-27T06:59:43.074Z,804.38
2019-04-27T07:00:43.037Z,804.38
2019-04-27T07:01:43.064Z,781.88
2019-04-27T07:02:43.025Z,776.25
2019-04-27T07:03:43.047Z,765.00
2019-04-27T07:04:42.996Z,714.38
2019-04-27T07:05:43.012Z,658.12
2019-04-27T07:06:53.207Z,618.75
2019-04-27T07:07:44.074Z,596.25
2019-04-27T07:08:42.981Z,596.25
2019-04-27T07:09:42.957Z,641.25
2019-04-27T07:10:42.954Z,680.62
2019-04-27T07:11:42.945Z,708.75
2019-04-27T07:12:42.916Z,714.38
2019-04-27T07:13:42.900Z,703.12
2019-04-27T07:14:52.282Z,663.75
2019-04-27T07:15:43.874Z,624.38
2019-04-27T07:16:42.897Z,590.62
2019-04-27T07:17:42.856Z,562.50
2019-04-27T07:18:42.848Z,540.00
2019-04-27T07:19:42.889Z,517.50
2019-04-27T07:20:42.841Z,506.25
2019-04-27T07:21:43.752Z,500.62
2019-04-27T07:22:42.794Z,500.62
2019-04-27T07:23:42.797Z,489.38
2019-04-27T07:24:42.790Z,483.75
2019-04-27T07:25:42.782Z,483.75
2019-04-27T07:26:42.750Z,489.38
2019-04-27T07:27:43.092Z,500.62
2019-04-27T07:28:42.745Z,511.88
2019-04-27T07:29:44.692Z,517.50
2019-04-27T07:30:42.715Z,511.88
2019-04-27T07:31:42.710Z,506.25
2019-04-27T07:32:42.706Z,528.75
2019-04-27T07:33:42.684Z,579.38
2019-04-27T07:34:42.697Z,635.62
2019-04-27T07:35:42.659Z,669.38
2019-04-27T07:36:42.647Z,680.62
2019-04-27T07:37:42.646Z,686.25
2019-04-27T07:38:42.626Z,686.25
2019-04-27T07:39:42.613Z,669.38
2019-04-27T07:40:42.610Z,635.62
2019-04-27T07:41:42.629Z,613.12
2019-04-27T07:42:42.597Z,596.25
2019-04-27T07:43:42.599Z,573.75
2019-04-27T07:44:42.568Z,556.88
2019-04-27T07:45:42.597Z,534.38
2019-04-27T07:46:43.059Z,556.88
2019-04-27T07:47:42.541Z,596.25
2019-04-27T07:48:42.513Z,607.50
2019-04-27T07:49:42.536Z,601.88
2019-04-27T07:50:42.520Z,596.25
2019-04-27T07:51:42.517Z,590.62
2019-04-27T07:52:42.471Z,579.38
2019-04-27T07:53:42.477Z,556.88
2019-04-27T07:54:42.531Z,523.12
2019-04-27T07:55:42.479Z,517.50
2019-04-27T07:56:43.319Z,523.12
2019-04-27T07:57:42.585Z,540.00
2019-04-27T07:58:42.404Z,540.00
2019-04-27T07:59:42.565Z,573.75
2019-04-27T08:00:42.577Z,658.12
2019-04-27T08:01:42.390Z,731.25
2019-04-27T08:02:42.634Z,793.12
2019-04-27T08:03:42.434Z,815.62
2019-04-27T08:04:42.448Z,832.50
2019-04-27T08:05:42.368Z,826.88
2019-04-27T08:08:08.922Z,770.62
2019-04-27T08:09:09.204Z,742.50
2019-04-27T08:10:09.754Z,714.38
2019-04-27T08:11:08.833Z,686.25
2019-04-27T08:14:50.468Z,720.00
2019-04-27T08:15:49.804Z,731.25
2019-04-27T08:16:49.709Z,736.88
2019-04-27T08:17:49.652Z,731.25
2019-04-27T08:18:51.626Z,703.12
2019-04-27T08:19:49.796Z,675.00
2019-04-27T08:20:49.607Z,663.75
2019-04-27T08:21:50.018Z,652.50
2019-04-27T08:22:50.042Z,675.00
2019-04-27T08:23:49.636Z,697.50
2019-04-27T08:24:49.919Z,703.12
2019-04-27T08:25:49.601Z,686.25
2019-04-27T08:26:50.003Z,652.50
2019-04-27T08:27:49.523Z,601.88
2019-04-27T08:28:49.517Z,528.75
2019-04-27T08:29:49.675Z,444.38
2019-04-27T08:30:50.458Z,360.00
2019-04-27T08:31:49.528Z,303.75
2019-04-27T08:32:49.844Z,275.62
2019-04-27T08:33:49.461Z,247.50
2019-04-27T08:34:49.748Z,281.25
2019-04-27T08:35:49.445Z,348.75
2019-04-27T08:36:49.945Z,371.25
2019-04-27T08:37:50.419Z,365.62
2019-04-27T08:38:49.547Z,382.50
2019-04-27T08:39:51.049Z,438.75
2019-04-27T08:40:50.196Z,523.12
2019-04-27T08:41:50.589Z,596.25
2019-04-27T08:42:51.332Z,630.00
2019-04-27T08:43:49.482Z,646.88
2019-04-27T08:44:49.802Z,630.00
2019-04-27T08:45:49.348Z,562.50
2019-04-27T08:46:49.575Z,489.38
2019-04-27T08:47:49.973Z,438.75
2019-04-27T08:48:49.399Z,500.62
2019-04-27T08:49:49.446Z,624.38
2019-04-27T08:50:49.545Z,669.38
2019-04-27T08:51:58.577Z,635.62
2019-04-27T08:52:50.450Z,658.12
2019-04-27T08:53:50.138Z,691.88
2019-04-27T08:54:51.074Z,725.62
2019-04-27T08:55:50.346Z,849.38
2019-04-27T08:56:49.544Z,961.88
2019-04-27T08:57:50.415Z,1029.38
2019-04-27T08:58:50.692Z,1057.50
2019-04-27T08:59:51.130Z,1035.00
2019-04-27T09:00:49.337Z,973.12
2019-04-27T09:03:07.234Z,911.25
2019-04-27T09:04:09.234Z,900.00
2019-04-27T09:05:17.120Z,871.88
2019-04-27T09:06:09.042Z,866.25
2019-04-27T09:07:08.792Z,798.75
2019-04-27T09:08:08.672Z,686.25
2019-04-27T09:09:06.791Z,590.62
2019-04-27T09:10:08.562Z,523.12
2019-04-27T09:11:06.715Z,483.75
2019-04-27T09:12:06.697Z,444.38
2019-04-27T09:13:08.723Z,416.25
2019-04-27T09:14:08.940Z,371.25
2019-04-27T09:15:06.747Z,343.12
2019-04-27T09:16:06.719Z,427.50
2019-04-27T09:17:06.717Z,523.12
2019-04-27T09:18:06.762Z,601.88
2019-04-27T09:19:08.826Z,652.50
2019-04-27T09:20:09.454Z,635.62
2019-04-27T09:21:08.780Z,613.12
2019-04-27T09:22:15.930Z,556.88
2019-04-27T09:23:10.722Z,506.25
2019-04-27T09:24:06.591Z,528.75
2019-04-27T09:27:03.741Z,691.88
2019-04-27T09:28:04.946Z,686.25
2019-04-27T09:29:04.377Z,686.25
2019-04-27T09:30:04.988Z,708.75
2019-04-27T09:31:03.662Z,759.38
2019-04-27T09:32:03.218Z,826.88
2019-04-27T09:33:03.284Z,916.88
2019-04-27T09:34:03.209Z,990.00
2019-04-27T09:35:03.187Z,1063.12
2019-04-27T09:36:03.186Z,1113.75
2019-04-27T09:37:03.167Z,1158.75
2019-04-27T09:38:03.292Z,1231.88
2019-04-27T09:39:03.181Z,1293.75
2019-04-27T09:40:03.136Z,1310.62
2019-04-27T09:41:03.128Z,1293.75
2019-04-27T09:42:03.124Z,1265.62
2019-04-27T09:43:03.151Z,1237.50
2019-04-27T09:44:03.191Z,1209.38
2019-04-27T09:45:04.064Z,1203.75
2019-04-27T09:46:03.082Z,1198.12
2019-04-27T09:47:03.156Z,1215.00
2019-04-27T09:48:03.112Z,1248.75
2019-04-27T09:49:03.077Z,1276.88
2019-04-27T09:50:03.084Z,1293.75
2019-04-27T09:51:03.069Z,1305.00
2019-04-27T09:52:03.070Z,1316.25
2019-04-27T09:53:02.985Z,1321.88
2019-04-27T09:54:03.219Z,1316.25
2019-04-27T09:55:03.021Z,1321.88
2019-04-27T09:56:03.021Z,1327.50
2019-04-27T09:57:02.960Z,1327.50
2019-04-27T09:58:02.997Z,1310.62
2019-04-27T09:59:02.946Z,1276.88
2019-04-27T10:00:02.945Z,1276.88
2019-04-27T10:01:02.924Z,1316.25
2019-04-27T10:02:02.907Z,1372.50
2019-04-27T10:03:02.893Z,1406.25
2019-04-27T10:04:02.899Z,1378.12
2019-04-27T10:05:02.871Z,1327.50
2019-04-27T10:06:03.158Z,1316.25
2019-04-27T10:07:02.849Z,1271.25
2019-04-27T10:23:47.139Z,1051.88
2019-04-27T10:30:25.854Z,1321.88
2019-04-27T10:31:16.510Z,1350.00
2019-04-27T10:32:16.185Z,1366.88
2019-04-27T10:33:16.092Z,1378.12
2019-04-27T10:34:15.408Z,1451.25
2019-04-27T10:36:48.251Z,1327.50
2019-04-27T10:37:46.951Z,1440.00
2019-04-27T10:38:46.931Z,1485.00
2019-04-27T10:39:47.802Z,1473.75
2019-04-27T10:40:46.995Z,1395.00
2019-04-27T10:41:48.323Z,1423.12
2019-04-27T10:42:46.889Z,1462.50
2019-04-27T10:43:46.883Z,1451.25
2019-04-27T10:44:46.927Z,1451.25
2019-04-27T10:45:48.955Z,1417.50
2019-04-27T10:46:47.055Z,1293.75
2019-04-27T10:47:49.239Z,1254.38
2019-04-27T10:48:46.836Z,1282.50
2019-04-27T10:49:48.471Z,1215.00
2019-04-27T10:50:46.884Z,1243.12
2019-04-27T10:52:59.488Z,1586.25
2019-04-27T10:53:58.786Z,1501.88
2019-04-27T10:54:58.758Z,1552.50
2019-04-27T10:55:58.703Z,1490.62
2019-04-27T10:56:58.669Z,1355.62
2019-04-27T10:57:58.647Z,1400.62
2019-04-27T10:58:58.659Z,1575.00
2019-04-27T10:59:58.629Z,1721.25
2019-04-27T11:00:58.804Z,1726.88
2019-04-27T11:01:58.607Z,1670.62
2019-04-27T11:02:58.622Z,1552.50
2019-04-27T11:03:58.644Z,1597.50
2019-04-27T11:04:58.749Z,1636.88
2019-04-27T11:05:58.567Z,1625.62
2019-04-27T11:06:58.569Z,1541.25
2019-04-27T11:07:58.536Z,1417.50
2019-04-27T11:08:58.533Z,1271.25
2019-04-27T11:09:58.542Z,1125.00
2019-04-27T11:10:58.546Z,1080.00
2019-04-27T11:11:58.514Z,1192.50
2019-04-27T11:12:58.523Z,1305.00
2019-04-27T11:14:00.949Z,1350.00
2019-04-27T11:14:58.463Z,1237.50
2019-04-27T11:15:58.467Z,1186.88
2019-04-27T11:16:58.462Z,1260.00
2019-04-27T11:17:58.440Z,1406.25
2019-04-27T11:18:58.838Z,1400.62
2019-04-27T11:19:58.436Z,1411.88
2019-04-27T11:20:58.430Z,1305.00
2019-04-27T11:21:58.395Z,1136.25
2019-04-27T11:23:07.005Z,984.38
2019-04-27T11:23:59.358Z,911.25
2019-04-27T11:24:58.402Z,843.75
2019-04-27T11:25:58.477Z,826.88
2019-04-27T11:26:58.416Z,990.00
2019-04-27T11:27:58.325Z,1186.88
2019-04-27T11:28:58.325Z,1383.75
2019-04-27T11:29:58.381Z,1614.38
2019-04-27T11:32:16.096Z,1631.25
2019-04-27T11:33:16.166Z,1333.12
2019-04-27T11:34:15.835Z,810.00
2019-04-27T11:39:48.156Z,303.75
2019-04-27T11:44:32.897Z,455.62
2019-04-27T11:45:31.967Z,500.62
2019-04-27T12:02:28.808Z,686.25
2019-04-27T12:03:28.433Z,646.88
2019-04-27T12:04:28.331Z,545.62
2019-04-27T12:05:28.318Z,703.12
2019-04-27T12:06:28.407Z,759.38
2019-04-27T12:07:30.248Z,793.12
2019-04-27T12:09:38.906Z,815.62
2019-04-27T12:10:38.765Z,781.88
2019-04-27T12:11:38.696Z,714.38
2019-04-27T12:12:38.662Z,748.12
2019-04-27T12:13:38.649Z,815.62
2019-04-27T12:14:38.824Z,928.12
2019-04-27T12:15:38.642Z,1029.38
2019-04-27T12:16:38.694Z,1102.50
2019-04-27T12:17:38.647Z,1006.88
2019-04-27T12:18:38.584Z,950.62
2019-04-27T12:19:38.588Z,866.25
2019-04-27T12:20:38.600Z,928.12
2019-04-27T12:24:58.441Z,945.00
2019-04-27T12:25:58.878Z,928.12
2019-04-27T12:26:57.851Z,748.12
2019-04-27T12:31:26.671Z,320.62
2019-04-27T12:33:46.102Z,298.12
2019-04-27T12:34:47.065Z,382.50
2019-04-27T12:35:49.886Z,461.25
2019-04-27T13:09:01.841Z,433.12
2019-04-27T13:10:01.676Z,450.00
2019-04-27T13:12:27.314Z,275.62
2019-04-27T13:13:26.716Z,292.50
2019-04-27T13:14:26.381Z,343.12
2019-04-27T13:15:26.492Z,309.38
2019-04-27T13:16:26.873Z,253.12
2019-04-27T13:17:29.272Z,208.12
2019-04-27T13:18:26.053Z,163.12
2019-04-27T13:22:31.817Z,286.88
2019-04-27T13:23:31.228Z,483.75
2019-04-27T13:24:31.293Z,551.25
2019-04-27T13:25:31.234Z,568.12
2019-04-27T13:26:31.587Z,551.25
2019-04-27T13:27:31.272Z,517.50
2019-04-27T13:28:31.190Z,483.75
2019-04-27T13:29:31.133Z,455.62
2019-04-27T13:30:31.280Z,427.50
2019-04-27T13:31:31.089Z,410.62
2019-04-27T13:32:31.113Z,433.12
2019-04-27T13:33:31.213Z,438.75
2019-04-27T13:34:31.169Z,433.12
2019-04-27T13:37:29.783Z,410.62
2019-04-27T13:38:29.345Z,410.62
2019-04-27T13:39:29.377Z,421.88
2019-04-27T13:40:38.832Z,466.88
2019-04-27T13:41:32.762Z,573.75
2019-04-27T13:42:31.148Z,669.38
2019-04-27T13:43:29.328Z,742.50
2019-04-27T13:44:29.334Z,793.12
2019-04-27T13:45:29.313Z,815.62
2019-04-27T13:46:29.324Z,798.75
2019-04-27T13:47:30.493Z,742.50
2019-04-27T13:48:29.241Z,686.25
2019-04-27T13:49:29.207Z,652.50
2019-04-27T13:50:29.385Z,635.62
2019-04-27T13:51:29.168Z,624.38
2019-04-27T13:52:29.967Z,596.25
2019-04-27T13:53:29.192Z,556.88
2019-04-27T13:54:29.392Z,528.75
2019-04-27T13:55:29.152Z,489.38
2019-04-27T13:56:29.133Z,472.50
2019-04-27T13:57:29.276Z,478.12
2019-04-27T13:58:29.098Z,500.62
2019-04-27T13:59:29.113Z,534.38
2019-04-27T14:00:29.102Z,562.50
2019-04-27T14:05:16.685Z,810.00
2019-04-27T14:06:16.025Z,871.88
2019-04-27T14:07:15.662Z,933.75
2019-04-27T14:57:44.734Z,1344.38
2019-04-27T14:58:49.440Z,1248.75
2019-04-27T14:59:44.121Z,1170.00
2019-04-27T15:00:45.049Z,1136.25
2019-04-27T15:11:53.587Z,736.88
2019-04-27T15:12:49.417Z,731.25
2019-04-27T15:13:53.206Z,703.12
2019-04-27T15:14:49.371Z,714.38
2019-04-27T15:15:49.426Z,731.25
2019-04-27T15:16:52.672Z,748.12
2019-04-27T15:19:36.134Z,798.75
2019-04-27T15:20:39.720Z,838.12
2019-04-27T15:21:40.711Z,826.88
2019-04-27T15:22:37.024Z,826.88
2019-04-27T15:23:36.182Z,776.25
2019-04-27T15:24:36.007Z,815.62
2019-04-27T15:25:44.921Z,843.75
2019-04-27T15:26:37.228Z,843.75
2019-04-27T15:27:37.574Z,826.88
2019-04-27T15:28:36.003Z,815.62
2019-04-27T15:29:35.936Z,804.38
2019-04-27T15:30:39.674Z,781.88